地図

経路データ

SID SEASON NUMBER BASIN SUBBASIN NAME ISO_TIME NATURE LAT LON WMO_WIND WMO_PRES WMO_AGENCY TRACK_TYPE DIST2LAND LANDFALL IFLAG USA_AGENCY USA_ATCF_ID USA_LAT USA_LON USA_RECORD USA_STATUS USA_WIND USA_PRES USA_SSHS USA_R34_NE USA_R34_SE USA_R34_SW USA_R34_NW USA_R50_NE USA_R50_SE USA_R50_SW USA_R50_NW USA_R64_NE USA_R64_SE USA_R64_SW USA_R64_NW USA_POCI USA_ROCI USA_RMW USA_EYE TOKYO_LAT TOKYO_LON TOKYO_GRADE TOKYO_WIND TOKYO_PRES TOKYO_R50_DIR TOKYO_R50_LONG TOKYO_R50_SHORT TOKYO_R30_DIR TOKYO_R30_LONG TOKYO_R30_SHORT TOKYO_LAND CMA_LAT CMA_LON CMA_CAT CMA_WIND CMA_PRES HKO_LAT HKO_LON HKO_CAT HKO_WIND HKO_PRES NEWDELHI_LAT NEWDELHI_LON NEWDELHI_GRADE NEWDELHI_WIND NEWDELHI_PRES NEWDELHI_CI NEWDELHI_DP NEWDELHI_POCI REUNION_LAT REUNION_LON REUNION_TYPE REUNION_WIND REUNION_PRES REUNION_TNUM REUNION_CI REUNION_RMW REUNION_R34_NE REUNION_R34_SE REUNION_R34_SW REUNION_R34_NW REUNION_R50_NE REUNION_R50_SE REUNION_R50_SW REUNION_R50_NW REUNION_R64_NE REUNION_R64_SE REUNION_R64_SW REUNION_R64_NW BOM_LAT BOM_LON BOM_TYPE BOM_WIND BOM_PRES BOM_TNUM BOM_CI BOM_RMW BOM_R34_NE BOM_R34_SE BOM_R34_SW BOM_R34_NW BOM_R50_NE BOM_R50_SE BOM_R50_SW BOM_R50_NW BOM_R64_NE BOM_R64_SE BOM_R64_SW BOM_R64_NW BOM_ROCI BOM_POCI BOM_EYE BOM_POS_METHOD BOM_PRES_METHOD NADI_LAT NADI_LON NADI_CAT NADI_WIND NADI_PRES WELLINGTON_LAT WELLINGTON_LON WELLINGTON_WIND WELLINGTON_PRES DS824_LAT DS824_LON DS824_STAGE DS824_WIND DS824_PRES TD9636_LAT TD9636_LON TD9636_STAGE TD9636_WIND TD9636_PRES TD9635_LAT TD9635_LON TD9635_WIND TD9635_PRES TD9635_ROCI NEUMANN_LAT NEUMANN_LON NEUMANN_CLASS NEUMANN_WIND NEUMANN_PRES MLC_LAT MLC_LON MLC_CLASS MLC_WIND MLC_PRES USA_GUST BOM_GUST BOM_GUST_PER REUNION_GUST REUNION_GUST_PER USA_SEAHGT USA_SEARAD_NE USA_SEARAD_SE USA_SEARAD_SW USA_SEARAD_NW STORM_SPEED STORM_DIR
1948018S12072 1948 7 SI MM NOT_NAMED 1948-01-18 06:00:00 TS -11.7000 72.4000 main 1830 1812 O________OO___ jtwc_sh SH051948 -11.7000 72.4000 -1 -11.7000 72.4000 TC 25 -11.7000 72.4000 7 4 286
1948018S12072 1948 7 SI MM NOT_NAMED 1948-01-18 09:00:00 TS -11.6457 72.2005 main 1818 1800 P________PP___ SH051948 -11.6325 72.2000 -1 -11.6325 72.2000 TC 25 -11.6720 72.2014 7 4 282
1948018S12072 1948 7 SI MM NOT_NAMED 1948-01-18 12:00:00 TS -11.6184 72.0008 main 1800 1781 O________OP___ jtwc_sh SH051948 -11.6000 72.0000 -1 -11.6000 72.0000 TC 25 -11.6551 72.0023 7 4 271
1948018S12072 1948 7 SI MM NOT_NAMED 1948-01-18 15:00:00 TS -11.6385 71.8007 main 1781 1757 P________PP___ SH051948 -11.6275 71.8000 -1 -11.6275 71.8000 TC 25 -11.6607 71.8021 7 4 258
1948018S12072 1948 7 SI MM NOT_NAMED 1948-01-18 18:00:00 TS -11.7000 71.6000 main 1757 1733 O________OO___ jtwc_sh SH051948 -11.7000 71.6000 -1 -11.7000 71.6000 TC 25 -11.7000 71.6000 1 4 249
1948018S12072 1948 7 SI MM NOT_NAMED 1948-01-18 21:00:00 TS -11.7881 71.3987 main 1733 1708 P________PP___ SH051948 -11.7925 71.4000 -1 -11.7925 71.4000 TC 25 -11.7794 71.3960 1 4 244
1948018S12072 1948 7 SI MM NOT_NAMED 1948-01-19 00:00:00 TS -11.8950 71.1975 main 1708 1684 O________OP___ jtwc_sh SH051948 -11.9000 71.2000 -1 -11.9000 71.2000 TC 25 -11.8850 71.1926 1 5 241
1948018S12072 1948 7 SI MM NOT_NAMED 1948-01-19 03:00:00 TS -12.0044 70.9926 main 1684 1660 P________PP___ SH051948 -12.0075 70.9925 -1 -12.0075 70.9925 TC 25 -11.9981 70.9929 1 4 242
1948018S12072 1948 7 SI MM NOT_NAMED 1948-01-19 06:00:00 TS -12.1000 70.8000 main 1660 1645 O________OO___ jtwc_sh SH051948 -12.1000 70.8000 -1 -12.1000 70.8000 TC 25 -12.1000 70.8000 1 4 246
1948018S12072 1948 7 SI MM NOT_NAMED 1948-01-19 09:00:00 TS -12.1557 70.6419 main 1636 1627 P________PP___ SH051948 -12.1575 70.6500 -1 -12.1575 70.6500 TC 25 -12.1521 70.6258 1 3 252
1948018S12072 1948 7 SI MM NOT_NAMED 1948-01-19 12:00:00 TS -12.1975 70.4858 main 1627 1609 O________OP___ jtwc_sh SH051948 -12.2000 70.5000 -1 -12.2000 70.5000 TC 25 -12.1924 70.4573 1 3 257
1948018S12072 1948 7 SI MM NOT_NAMED 1948-01-19 15:00:00 TS -12.2355 70.3000 main 1609 1585 P________PP___ SH051948 -12.2350 70.3075 -1 -12.2350 70.3075 TC 25 -12.2365 70.2851 1 4 255
1948018S12072 1948 7 SI MM NOT_NAMED 1948-01-19 18:00:00 TS -12.3000 70.1000 main 1585 1560 O________OO___ jtwc_sh SH051948 -12.3000 70.1000 -1 -12.3000 70.1000 TC 25 -12.3000 70.1000 1 4 243
1948018S12072 1948 7 SI MM NOT_NAMED 1948-01-19 21:00:00 TS -12.4322 69.9002 main 1560 1530 P________PP___ SH051948 -12.4425 69.9075 -1 -12.4425 69.9075 TC 25 -12.4116 69.8854 1 5 235
1948018S12072 1948 7 SI MM NOT_NAMED 1948-01-20 00:00:00 TS -12.5808 69.6859 main 1530 1505 O________OP___ jtwc_sh SH051948 -12.6000 69.7000 -1 -12.6000 69.7000 TC 25 -12.5425 69.6576 1 5 239
1948018S12072 1948 7 SI MM NOT_NAMED 1948-01-20 03:00:00 TS -12.7024 69.4420 main 1497 1472 P________PP___ SH051948 -12.7150 69.4500 -1 -12.7150 69.4500 TC 25 -12.6772 69.4260 1 5 245
1948018S12072 1948 7 SI MM NOT_NAMED 1948-01-20 06:00:00 TS -12.8000 69.2000 main 1472 1448 O________OO___ jtwc_sh SH051948 -12.8000 69.2000 -1 -12.8000 69.2000 TC 25 -12.8000 69.2000 1 5 250
1948018S12072 1948 7 SI MM NOT_NAMED 1948-01-20 09:00:00 TS -12.8631 68.9939 main 1448 1431 P________PP___ SH051948 -12.8500 68.9924 -1 -12.8500 68.9924 TC 25 -12.8893 68.9968 1 4 253
1948018S12072 1948 7 SI MM NOT_NAMED 1948-01-20 12:00:00 TS -12.9216 68.7999 main 1431 1406 O________OP___ jtwc_sh SH051948 -12.9000 68.8000 -1 -12.9000 68.8000 TC 25 -12.9649 68.7999 1 4 249
1948018S12072 1948 7 SI MM NOT_NAMED 1948-01-20 15:00:00 TS -13.0110 68.6010 main 1406 1382 P________PP___ SH051948 -13.0000 68.6000 -1 -13.0000 68.6000 TC 25 -13.0330 68.6030 1 4 245
1948018S12072 1948 7 SI MM NOT_NAMED 1948-01-20 18:00:00 TS -13.1000 68.4000 main 1382 1358 O________OO___ jtwc_sh SH051948 -13.1000 68.4000 -1 -13.1000 68.4000 TC 25 -13.1000 68.4000 1 4 250
1948018S12072 1948 7 SI MM NOT_NAMED 1948-01-20 21:00:00 TS -13.1569 68.1990 main 1358 1341 P________PP___ SH051948 -13.1500 68.2075 -1 -13.1500 68.2075 TC 25 -13.1709 68.1821 1 4 254
1948018S12072 1948 7 SI MM NOT_NAMED 1948-01-21 00:00:00 TS -13.2142 67.9858 main 1341 1317 O________OP___ jtwc_sh SH051948 -13.2000 68.0000 -1 -13.2000 68.0000 TC 25 -13.2425 67.9574 1 5 252
1948018S12072 1948 7 SI MM NOT_NAMED 1948-01-21 03:00:00 TS -13.3009 67.7430 main 1308 1284 P________PP___ SH051948 -13.2925 67.7500 -1 -13.2925 67.7500 TC 30 -13.3178 67.7290 1 5 249
1948018S12072 1948 7 SI MM NOT_NAMED 1948-01-21 06:00:00 TS -13.4000 67.5000 main 1284 1260 O________OO___ jtwc_sh SH051948 -13.4000 67.5000 -1 -13.4000 67.5000 TC 35 -13.4000 67.5000 2 5 246
1948018S12072 1948 7 SI MM NOT_NAMED 1948-01-21 09:00:00 TS -13.4976 67.2903 main 1260 1236 P________PP___ SH051948 -13.4999 67.3000 -1 -13.4999 67.3000 TC 35 -13.4928 67.2709 2 5 244
1948018S12072 1948 7 SI MM NOT_NAMED 1948-01-21 12:00:00 TS -13.5975 67.0808 main 1236 1212 O________OP___ jtwc_sh SH051948 -13.6000 67.1000 -1 -13.6000 67.1000 TC 35 -13.5925 67.0425 2 5 245
1948018S12072 1948 7 SI MM NOT_NAMED 1948-01-21 15:00:00 TS -13.6986 66.8393 main 1203 1179 P________PP___ SH051948 -13.7000 66.8500 -1 -13.7000 66.8500 TC 35 -13.6959 66.8178 2 5 247
1948018S12072 1948 7 SI MM NOT_NAMED 1948-01-21 18:00:00 TS -13.8000 66.6000 main 1179 1156 O________OO___ jtwc_sh SH051948 -13.8000 66.6000 -1 -13.8000 66.6000 TC 35 -13.8000 66.6000 2 5 245
1948018S12072 1948 7 SI MM NOT_NAMED 1948-01-21 21:00:00 TS -13.8945 66.3979 main 1156 1132 P________PP___ SH051948 -13.9000 66.3925 -1 -13.9000 66.3925 TC 35 -13.8836 66.4088 2 4 244
1948018S12072 1948 7 SI MM NOT_NAMED 1948-01-22 00:00:00 TS -13.9899 66.2074 main 1132 1108 O________OP___ jtwc_sh SH051948 -14.0000 66.2000 -1 -14.0000 66.2000 TC 35 -13.9697 66.2221 2 4 244
1948018S12072 1948 7 SI MM NOT_NAMED 1948-01-22 03:00:00 TS -14.0803 66.0131 main 1108 1067 P________PP___ SH051948 -14.0850 66.0074 -1 -14.0850 66.0074 TC 35 -14.0710 66.0244 2 7 249
1948018S12072 1948 7 SI MM NOT_NAMED 1948-01-22 06:00:00 TS -14.2308 65.5462 reunion main 1059 1011 O____O___OO___ jtwc_sh SH051948 -14.2000 65.8000 -1 -14.6000 62.5000 99 9.90000 -14.2000 65.8000 TC 35 -14.2000 65.8000 2 9 249
1948018S12072 1948 7 SI MM NOT_NAMED 1948-01-22 09:00:00 TS -14.4107 65.1252 main 1011 964 P____P___PP___ SH051948 -14.3849 65.5725 -1 -14.5933 62.4802 99 -14.3849 65.5725 TC 35 -14.3710 65.5530 2 9 246
1948018S12072 1948 7 SI MM NOT_NAMED 1948-01-22 12:00:00 TS -14.5901 64.7248 main 964 932 O____P___OP___ jtwc_sh SH051948 -14.6000 65.3000 -1 -14.5908 62.4575 99 -14.6000 65.3000 TC 35 -14.5696 65.2748 2 8 246
1948018S12072 1948 7 SI MM NOT_NAMED 1948-01-22 15:00:00 TS -14.7450 64.3370 main 924 893 P____P___PP___ SH051948 -14.7999 64.9799 -1 -14.5967 62.4291 99 -14.7999 64.9799 TC 35 -14.7834 64.9592 2 7 244
1948018S12072 1948 7 SI MM NOT_NAMED 1948-01-22 18:00:00 TS -14.9038 64.0480 main 885 846 O____P___OO___ jtwc_sh SH051948 -15.0000 64.6000 -1 -14.6153 62.3921 99 -15.0000 64.6000 TC 35 -15.0000 64.6000 2 7 242
1948018S12072 1948 7 SI MM NOT_NAMED 1948-01-22 21:00:00 TS -15.0658 63.7147 main 846 815 P____P___PP___ SH051948 -15.2000 64.1650 -1 -14.6507 62.3435 99 -15.2000 64.1650 TC 35 -15.2124 64.1852 2 7 244
1948018S12072 1948 7 SI MM NOT_NAMED 1948-01-23 00:00:00 TS -15.2325 63.3527 main 815 769 O____P___OP___ jtwc_sh SH051948 -15.4000 63.7000 -1 -14.7072 62.2806 99 -15.4000 63.7000 TC 35 -15.4228 63.7303 2 8 244
1948018S12072 1948 7 SI MM NOT_NAMED 1948-01-23 03:00:00 TS -15.4064 62.9864 main 769 722 P____P___PP___ SH051948 -15.6075 63.2425 -1 -14.7889 62.2004 99 -15.6075 63.2425 TC 35 -15.6217 63.2602 2 8 244
1948018S12072 1948 7 SI MM NOT_NAMED 1948-01-23 06:00:00 TS -15.5750 62.6250 reunion main 722 692 O____O___OO___ jtwc_sh SH051948 -15.8000 62.8000 -1 -14.9000 62.1000 99 9.90000 -15.8000 62.8000 TC 35 -15.8000 62.8000 2 7 244
1948018S12072 1948 7 SI MM NOT_NAMED 1948-01-23 09:00:00 TS -15.7297 62.2867 main 692 653 P____P___PP___ SH051948 -15.9649 62.3924 -1 -15.0429 61.9768 99 -15.9649 62.3924 TC 35 -15.9462 62.3852 2 7 245
1948018S12072 1948 7 SI MM NOT_NAMED 1948-01-23 12:00:00 TS -15.8711 61.9535 main 653 616 O____P___OP___ jtwc_sh SH051948 -16.1000 62.0000 -1 -15.2125 61.8296 99 -16.1000 62.0000 TC 35 -16.0720 61.9845 2 7 247
1948018S12072 1948 7 SI MM NOT_NAMED 1948-01-23 15:00:00 TS -16.0009 61.6123 main 616 587 P____P___PP___ SH051948 -16.2074 61.5999 -1 -15.4017 61.6577 99 -16.2074 61.5999 TC 35 -16.1868 61.5915 2 7 249
1948018S12072 1948 7 SI MM NOT_NAMED 1948-01-23 18:00:00 TS -16.1259 61.2651 main 587 543 O____P___OO___ jtwc_sh SH051948 -16.3000 61.2000 -1 -15.6038 61.4602 99 -16.3000 61.2000 TC 35 -16.3000 61.2000 2 7 249
1948018S12072 1948 7 SI MM NOT_NAMED 1948-01-23 21:00:00 TS -16.2584 60.9040 main 543 514 P____P___PP___ SH051948 -16.3924 60.7999 -1 -15.8116 61.2365 99 -16.3924 60.7999 TC 35 -16.4372 60.7798 2 8 249
1948018S12072 1948 7 SI MM NOT_NAMED 1948-01-24 00:00:00 TS -16.3977 60.5371 main 508 481 O____P___OP___ jtwc_sh SH051948 -16.5000 60.4000 -1 -16.0182 60.9857 99 -16.5000 60.4000 TC 35 -16.5726 60.3627 2 8 247
1948018S12072 1948 7 SI MM NOT_NAMED 1948-01-24 03:00:00 TS -16.5571 60.1604 main 472 440 P____P___PP___ SH051948 -16.6575 59.9851 -1 -16.2167 60.7071 99 -16.6575 59.9851 TC 50 -16.6966 59.9642 2 8 247
1948018S12072 1948 7 SI MM NOT_NAMED 1948-01-24 06:00:00 TS -16.7000 59.8000 reunion main 440 415 O____O___OO___ jtwc_sh SH051948 -16.8000 59.6000 -1 -16.4000 60.4000 99 9.90000 -16.8000 59.6000 TC 65 -16.8000 59.6000 4 7 251
1948018S12072 1948 7 SI MM NOT_NAMED 1948-01-24 09:00:00 TS -16.7856 59.4781 main 415 401 P____P___PP___ SH051948 -16.8649 59.2774 -1 -16.5337 60.0485 99 -16.8649 59.2774 TC 65 -16.8791 59.3091 4 6 256
1948018S12072 1948 7 SI MM NOT_NAMED 1948-01-24 12:00:00 TS -16.8476 59.1781 main 401 379 O____P___OP___ jtwc_sh SH051948 -16.9000 59.0000 -1 -16.6537 59.6627 99 -16.9000 59.0000 TC 65 -16.9367 59.0497 4 6 257
1948018S12072 1948 7 SI MM NOT_NAMED 1948-01-24 15:00:00 TS -16.9136 58.8933 main 379 359 P____P___PP___ SH051948 -16.9573 58.7650 -1 -16.7638 59.2529 99 -16.9573 58.7650 TC 65 -16.9760 58.7905 4 6 258
1948018S12072 1948 7 SI MM NOT_NAMED 1948-01-24 18:00:00 TS -16.9669 58.5823 main 359 350 O____P___OO___ jtwc_sh SH051948 -17.0000 58.5000 -1 -16.8677 58.8292 99 -17.0000 58.5000 TC 65 -17.0000 58.5000 4 7 263
1948018S12072 1948 7 SI MM NOT_NAMED 1948-01-24 21:00:00 TS -16.9926 58.1946 main 350 346 P____P___PP___ SH051948 -17.0075 58.1225 -1 -16.9692 58.4020 99 -17.0075 58.1225 TC 65 -16.9861 58.1313 4 8 267
1948018S12072 1948 7 SI MM NOT_NAMED 1948-01-25 00:00:00 TS -17.0088 57.7776 main 346 346 O____P___OP___ jtwc_sh SH051948 -17.0000 57.7000 -1 -17.0725 57.9812 99 -17.0000 57.7000 TC 65 -16.9627 57.7292 4 8 267
1948018S12072 1948 7 SI MM NOT_NAMED 1948-01-25 03:00:00 TS -17.0273 57.3724 main 346 338 P____P___PP___ SH051948 -16.9849 57.2999 -1 -17.1813 57.5772 99 -16.9849 57.2999 TC 65 -16.9579 57.3125 4 8 265
1948018S12072 1948 7 SI MM NOT_NAMED 1948-01-25 06:00:00 TS -17.0750 56.9750 reunion main 339 339 O____O___OO___ jtwc_sh SH051948 -17.0000 56.9000 -1 -17.3000 57.2000 99 9.90000 -17.0000 56.9000 TC 65 -17.0000 56.9000 4 8 261
1948018S12072 1948 7 SI MM NOT_NAMED 1948-01-25 09:00:00 TS -17.1542 56.5757 main 338 337 P____P___PP___ SH051948 -17.0625 56.4924 -1 -17.3996 56.8404 99 -17.0625 56.4924 TC 65 -17.0923 56.4775 4 8 254
1948018S12072 1948 7 SI MM NOT_NAMED 1948-01-25 12:00:00 TS -17.2851 56.1916 main 341 340 O____P___OP___ jtwc_sh SH051948 -17.2000 56.1000 -1 -17.5024 56.4986 99 -17.2000 56.1000 TC 65 -17.2378 56.0679 4 8 246
1948018S12072 1948 7 SI MM NOT_NAMED 1948-01-25 15:00:00 TS -17.4700 55.8298 main 341 334 P____P___PP___ SH051948 -17.4125 55.7201 -1 -17.6159 56.1796 99 -17.4125 55.7201 TC 65 -17.4393 55.6993 4 8 236
1948018S12072 1948 7 SI MM NOT_NAMED 1948-01-25 18:00:00 TS -17.7118 55.5221 main 341 329 O____P___OO___ jtwc_sh SH051948 -17.7000 55.4000 -1 -17.7472 55.8884 99 -17.7000 55.4000 TC 65 -17.7000 55.4000 4 7 225
1948018S12072 1948 7 SI MM NOT_NAMED 1948-01-25 21:00:00 TS -17.9960 55.2827 main 329 302 P____P___PP___ SH051948 -18.0274 55.1550 -1 -17.9040 55.6298 99 -18.0274 55.1550 TC 65 -18.0252 55.1908 4 7 212
1948018S12072 1948 7 SI MM NOT_NAMED 1948-01-26 00:00:00 TS -18.3245 55.1153 main 302 259 O____P___OP___ jtwc_sh SH051948 -18.4000 55.0000 -1 -18.0934 55.4089 99 -18.4000 55.0000 TC 65 -18.4045 55.0523 4 7 200
1948018S12072 1948 7 SI MM NOT_NAMED 1948-01-26 03:00:00 TS -18.6824 55.0120 main 259 225 P____P___PP___ SH051948 -18.8000 54.9273 -1 -18.3229 55.2306 99 -18.8000 54.9273 TC 65 -18.8066 54.9627 4 7 192
1948018S12072 1948 7 SI MM NOT_NAMED 1948-01-26 06:00:00 TS -19.0500 54.9500 reunion main 225 183 O____O___OO___ jtwc_sh SH051948 -19.2000 54.9000 -1 -18.6000 55.1000 99 9.90000 -19.2000 54.9000 TC 65 -19.2000 54.9000 4 7 189
1948018S12072 1948 7 SI MM NOT_NAMED 1948-01-26 09:00:00 TS -19.4026 54.8838 main 183 154 P____P___PP___ SH051948 -19.5650 54.8500 -1 -18.9369 55.0231 99 -19.5650 54.8500 TC 65 -19.5434 54.8121 4 7 189
1948018S12072 1948 7 SI MM NOT_NAMED 1948-01-26 12:00:00 TS -19.7486 54.8360 main 154 113 O____P___OP___ jtwc_sh SH051948 -19.9000 54.8000 -1 -19.3219 54.9966 99 -19.9000 54.8000 TC 65 -19.8724 54.7475 4 7 186
1948018S12072 1948 7 SI MM NOT_NAMED 1948-01-26 15:00:00 TS -20.0881 54.7978 main 113 84 P____P___PP___ SH051948 -20.2075 54.7351 -1 -19.7472 55.0118 99 -20.2075 54.7351 TC 65 -20.1903 54.7091 4 7 183
1948018S12072 1948 7 SI MM NOT_NAMED 1948-01-26 18:00:00 TS -20.4262 54.7899 main 84 61 O____P___OO___ jtwc_sh SH051948 -20.5000 54.7000 -1 -20.2047 55.0598 99 -20.5000 54.7000 TC 65 -20.5000 54.7000 4 7 177
1948018S12072 1948 7 SI MM NOT_NAMED 1948-01-26 21:00:00 TS -20.7643 54.8297 main 53 31 P____P___PP___ SH051948 -20.8000 54.7349 -1 -20.6866 55.1316 99 -20.8000 54.7349 TC 65 -20.7706 54.7172 4 7 172
1948018S12072 1948 7 SI MM NOT_NAMED 1948-01-27 00:00:00 TS -21.1063 54.8952 main 31 31 O____P___OP___ jtwc_sh SH051948 -21.1000 54.8000 -1 -21.1850 55.2184 99 -21.1000 54.8000 TC 65 -21.0400 54.7625 4 7 170
1948018S12072 1948 7 SI MM NOT_NAMED 1948-01-27 03:00:00 TS -21.4429 54.9594 main 33 33 P____P___PP___ SH051948 -21.3700 54.8501 -1 -21.6921 55.3109 99 -21.3700 54.8501 TC 65 -21.3394 54.8267 4 7 171
1948018S12072 1948 7 SI MM NOT_NAMED 1948-01-27 06:00:00 TS -21.8250 55.0250 reunion main 63 63 O____O___OO___ jtwc_sh SH051948 -21.7000 54.9000 -1 -22.2000 55.4000 99 9.90000 -21.7000 54.9000 TC 65 -21.7000 54.9000 4 9 173
1948018S12072 1948 7 SI MM NOT_NAMED 1948-01-27 09:00:00 TS -22.3021 55.0635 main 113 113 P____P___PP___ SH051948 -22.1625 54.9426 -1 -22.7193 55.4525 99 -22.1625 54.9426 TC 65 -22.1640 54.9164 4 10 175
1948018S12072 1948 7 SI MM NOT_NAMED 1948-01-27 12:00:00 TS -22.8350 55.1138 main 164 164 O____P___OP___ jtwc_sh SH051948 -22.7000 55.0000 -1 -23.2506 55.5080 99 -22.7000 55.0000 TC 65 -22.6894 54.9473 4 11 175
1948018S12072 1948 7 SI MM NOT_NAMED 1948-01-27 15:00:00 TS -23.3821 55.1799 main 227 227 P____P___PP___ SH051948 -23.2499 55.0628 -1 -23.7834 55.5648 99 -23.2499 55.0628 TC 65 -23.2451 55.0293 4 11 171
1948018S12072 1948 7 SI MM NOT_NAMED 1948-01-27 18:00:00 TS -23.9268 55.3052 main 281 281 O____P___OO___ jtwc_sh SH051948 -23.8000 55.2000 -1 -24.3072 55.6209 99 -23.8000 55.2000 TC 65 -23.8000 55.2000 4 11 164
1948018S12072 1948 7 SI MM NOT_NAMED 1948-01-27 21:00:00 TS -24.4389 55.5102 main 335 335 P____P___PP___ SH051948 -24.3073 55.4403 -1 -24.8113 55.6745 99 -24.3073 55.4403 TC 50 -24.3294 55.4858 4 11 157
1948018S12072 1948 7 SI MM NOT_NAMED 1948-01-28 00:00:00 TS -24.9572 55.7922 main 402 402 O____P___OP___ jtwc_sh SH051948 -24.8000 55.8000 -1 -25.2852 55.7236 99 -24.8000 55.8000 TC 35 -24.8343 55.8681 4 12 154
1948018S12072 1948 7 SI MM NOT_NAMED 1948-01-28 03:00:00 TS -25.4709 56.0773 main 461 461 P____P___PP___ SH051948 -25.2980 56.2690 -1 -25.7183 55.7661 99 -25.2980 56.2690 TC 35 -25.3219 56.3165 4 11 159
1948018S12072 1948 7 SI MM NOT_NAMED 1948-01-28 06:00:00 TS -25.9714 56.2286 reunion main 517 517 O____O___OO___ jtwc_sh SH051948 -25.8000 56.8000 -1 -26.1000 55.8000 99 9.90000 -25.8000 56.8000 TC 35 -25.8000 56.8000 2 10 193
1948018S12072 1948 7 SI MM NOT_NAMED 1948-01-28 09:00:00 NR -26.4228 55.8238 main 559 559 _____P________ SH051948 -1 -26.4228 55.8238 99 TC 2 8 206
1948018S12072 1948 7 SI MM NOT_NAMED 1948-01-28 12:00:00 NR -26.6915 55.8382 main 592 592 _____P________ -1 -26.6915 55.8382 99 2 5 179
1948018S12072 1948 7 SI MM NOT_NAMED 1948-01-28 15:00:00 NR -26.9137 55.8444 main 614 614 _____P________ -1 -26.9137 55.8444 99 2 4 0
1948018S12072 1948 7 SI MM NOT_NAMED 1948-01-28 18:00:00 NR -27.0973 55.8438 main 637 637 _____P________ -1 -27.0973 55.8438 99 3 0
1948018S12072 1948 7 SI MM NOT_NAMED 1948-01-28 21:00:00 NR -27.2500 55.8377 main 659 659 _____P________ -1 -27.2500 55.8377 99 3 183
1948018S12072 1948 7 SI MM NOT_NAMED 1948-01-29 00:00:00 NR -27.3795 55.8274 main 670 670 _____P________ -1 -27.3795 55.8274 99 2 183
1948018S12072 1948 7 SI MM NOT_NAMED 1948-01-29 03:00:00 NR -27.4936 55.8144 main 681 681 _____P________ -1 -27.4936 55.8144 99 2 0
1948018S12072 1948 7 SI MM NOT_NAMED 1948-01-29 06:00:00 NR -27.6000 55.8000 reunion main 693 _____O________ -1 -27.6000 55.8000 99 9.90000 2 0

IBTrACS Databaseについて

本データベースは、米国NOAAが公開する1842年以降の世界の熱帯低気圧のベストトラックデータアーカイブInternational Best Track Archive for Climate Stewardship (IBTrACS)を、ウェブで閲覧しやすい形式に変換したものです。

最終更新日:2021-11-26